createdAt,value
2023-01-09T00:00:01.788Z,97.60
2023-01-09T00:02:28.877Z,97.60
2023-01-09T00:04:56.035Z,97.60
2023-01-09T00:11:17.925Z,97.80
2023-01-09T00:13:53.447Z,97.80
2023-01-09T00:19:15.082Z,97.90
2023-01-09T00:21:42.467Z,97.80
2023-01-09T00:24:10.029Z,97.90
2023-01-09T00:26:37.020Z,97.90
2023-01-09T00:29:06.315Z,97.90
2023-01-09T00:31:33.306Z,97.90
2023-01-09T00:34:03.231Z,97.80
2023-01-09T00:36:30.164Z,97.90
2023-01-09T00:38:57.454Z,97.90
2023-01-09T00:41:36.018Z,97.90
2023-01-09T00:44:11.475Z,97.90
2023-01-09T00:46:43.117Z,97.80
2023-01-09T00:49:11.688Z,97.70
2023-01-09T00:51:40.089Z,97.70
2023-01-09T00:54:08.446Z,97.80
2023-01-09T00:56:36.921Z,97.90
2023-01-09T00:59:04.741Z,97.90
2023-01-09T01:01:32.458Z,98.00
2023-01-09T01:04:19.523Z,98.10
2023-01-09T01:07:05.255Z,98.10
2023-01-09T01:09:32.513Z,98.20
2023-01-09T01:11:59.581Z,98.30
2023-01-09T01:14:27.339Z,98.40
2023-01-09T01:16:54.232Z,98.50
2023-01-09T01:19:21.363Z,98.60
2023-01-09T01:21:48.414Z,98.50
2023-01-09T01:24:19.672Z,98.60
2023-01-09T01:26:47.427Z,98.70
2023-01-09T01:29:14.341Z,98.80
2023-01-09T01:31:41.282Z,98.90
2023-01-09T01:34:08.262Z,98.90
2023-01-09T01:36:35.261Z,98.90
2023-01-09T01:39:02.137Z,98.90
2023-01-09T01:41:31.788Z,99.00
2023-01-09T01:44:04.993Z,99.10
2023-01-09T01:46:33.561Z,99.20
2023-01-09T01:49:14.061Z,99.20
2023-01-09T01:51:46.449Z,99.20
2023-01-09T01:54:19.817Z,99.30
2023-01-09T01:56:51.372Z,99.30
2023-01-09T01:59:23.861Z,99.30
2023-01-09T02:01:54.271Z,99.40
2023-01-09T02:04:21.391Z,99.50
2023-01-09T02:06:50.957Z,99.50
2023-01-09T02:09:22.680Z,99.50
2023-01-09T02:11:54.438Z,99.50
2023-01-09T02:14:24.453Z,99.50
2023-01-09T02:20:13.465Z,99.60
2023-01-09T02:23:10.869Z,99.60
2023-01-09T02:26:02.644Z,99.60
2023-01-09T02:29:01.509Z,99.70
2023-01-09T02:31:50.171Z,99.90
2023-01-09T02:35:00.155Z,99.90
2023-01-09T02:37:29.869Z,99.90
2023-01-09T02:40:00.443Z,99.90
2023-01-09T02:42:27.379Z,99.90
2023-01-09T02:44:54.296Z,99.90
2023-01-09T02:47:21.073Z,99.90
2023-01-09T02:49:54.187Z,99.90
2023-01-09T02:52:58.184Z,99.90
2023-01-09T02:55:43.196Z,99.90
2023-01-09T02:58:18.947Z,99.90
2023-01-09T03:00:58.860Z,99.90
2023-01-09T03:03:52.666Z,99.90
2023-01-09T03:06:28.874Z,99.90
2023-01-09T03:09:01.609Z,99.90
2023-01-09T03:11:33.724Z,99.90
2023-01-09T03:14:07.829Z,99.90
2023-01-09T03:16:37.861Z,99.90
2023-01-09T03:19:10.689Z,99.90
2023-01-09T03:21:38.128Z,99.90
2023-01-09T03:24:05.211Z,99.90
2023-01-09T03:26:32.161Z,99.90
2023-01-09T03:28:59.857Z,99.90
2023-01-09T03:31:26.896Z,99.90
2023-01-09T03:33:53.824Z,99.90
2023-01-09T03:36:22.346Z,99.90
2023-01-09T03:38:49.506Z,99.90
2023-01-09T03:41:16.449Z,99.90
2023-01-09T03:43:43.365Z,99.90
2023-01-09T03:46:10.400Z,99.90
2023-01-09T03:48:37.266Z,99.90
2023-01-09T03:51:04.240Z,99.90
2023-01-09T03:53:31.021Z,99.90
2023-01-09T03:55:58.871Z,99.90
2023-01-09T03:58:26.710Z,99.90
2023-01-09T04:00:59.517Z,99.90
2023-01-09T04:03:26.766Z,99.90
2023-01-09T04:05:54.623Z,99.90
2023-01-09T04:08:21.718Z,99.90
2023-01-09T04:10:50.319Z,99.90
2023-01-09T04:13:17.492Z,99.90
2023-01-09T04:15:44.754Z,99.90
2023-01-09T04:18:11.683Z,99.90
2023-01-09T04:20:38.525Z,99.90
2023-01-09T04:23:05.727Z,99.90
2023-01-09T04:25:32.618Z,99.90
2023-01-09T04:27:59.526Z,99.90
2023-01-09T04:30:26.553Z,99.90
2023-01-09T04:32:53.483Z,99.90
2023-01-09T04:35:20.784Z,99.90
2023-01-09T04:37:47.813Z,99.90
2023-01-09T04:40:15.337Z,99.90
2023-01-09T04:42:42.426Z,99.90
2023-01-09T04:45:11.458Z,99.90
2023-01-09T04:47:38.744Z,99.90
2023-01-09T04:50:05.960Z,99.90
2023-01-09T04:52:32.879Z,99.90
2023-01-09T04:54:59.839Z,99.90
2023-01-09T04:57:26.737Z,99.90
2023-01-09T04:59:54.401Z,99.90
2023-01-09T05:02:21.413Z,99.90
2023-01-09T05:04:48.352Z,99.90
2023-01-09T05:07:15.317Z,99.90
2023-01-09T05:09:42.946Z,99.90
2023-01-09T05:12:10.011Z,99.90
2023-01-09T05:14:36.796Z,99.90
2023-01-09T05:17:03.737Z,99.90
2023-01-09T05:19:30.601Z,99.90
2023-01-09T05:21:57.468Z,99.90
2023-01-09T05:24:24.361Z,99.90
2023-01-09T05:26:51.265Z,99.90
2023-01-09T05:29:18.192Z,99.90
2023-01-09T05:31:45.209Z,99.90
2023-01-09T05:34:12.182Z,99.90
2023-01-09T05:36:39.197Z,99.90
2023-01-09T05:39:06.671Z,99.90
2023-01-09T05:41:33.680Z,99.90
2023-01-09T05:44:00.552Z,99.90
2023-01-09T05:46:27.512Z,99.90
2023-01-09T05:48:54.357Z,99.90
2023-01-09T05:51:21.178Z,99.90
2023-01-09T05:53:48.271Z,99.90
2023-01-09T05:56:15.657Z,99.90
2023-01-09T05:58:42.581Z,99.90
2023-01-09T06:01:09.562Z,99.90
2023-01-09T06:03:36.402Z,99.90
2023-01-09T06:06:03.363Z,99.90
2023-01-09T06:08:30.168Z,99.90
2023-01-09T06:10:57.089Z,99.90
2023-01-09T06:13:23.864Z,99.90
2023-01-09T06:15:50.805Z,99.90
2023-01-09T06:18:17.724Z,99.90
2023-01-09T06:20:45.999Z,99.90
2023-01-09T06:23:13.703Z,99.90
2023-01-09T06:25:41.168Z,99.90
2023-01-09T06:28:08.181Z,99.90
2023-01-09T06:30:35.381Z,99.90
2023-01-09T06:33:02.240Z,99.90
2023-01-09T06:35:29.206Z,99.90
2023-01-09T06:37:56.097Z,99.90
2023-01-09T06:40:23.028Z,99.90
2023-01-09T06:42:50.151Z,99.90
2023-01-09T06:45:17.293Z,99.90
2023-01-09T06:47:44.472Z,99.90
2023-01-09T06:50:11.745Z,99.90
2023-01-09T06:52:39.330Z,99.90
2023-01-09T06:55:07.200Z,99.90
2023-01-09T06:57:34.161Z,99.90
2023-01-09T07:00:01.199Z,99.90
2023-01-09T07:02:28.550Z,99.90
2023-01-09T07:04:55.413Z,99.90
2023-01-09T07:07:22.629Z,99.90
2023-01-09T07:09:50.054Z,99.90
2023-01-09T07:12:16.871Z,99.90
2023-01-09T07:14:43.992Z,99.90
2023-01-09T07:17:13.464Z,99.90
2023-01-09T07:19:40.780Z,99.90
2023-01-09T07:22:08.280Z,99.90
2023-01-09T07:24:35.189Z,99.90
2023-01-09T07:27:02.519Z,99.90
2023-01-09T07:29:29.660Z,99.90
2023-01-09T07:31:56.693Z,99.90
2023-01-09T07:34:23.620Z,99.90
2023-01-09T07:36:51.182Z,99.90
2023-01-09T07:39:18.156Z,99.90
2023-01-09T07:41:45.138Z,99.90
2023-01-09T07:44:12.230Z,99.90
2023-01-09T07:46:39.338Z,99.90
2023-01-09T07:49:06.577Z,99.90
2023-01-09T07:51:33.469Z,99.90
2023-01-09T07:54:00.360Z,99.90
2023-01-09T07:56:27.225Z,99.90
2023-01-09T07:58:54.261Z,99.90
2023-01-09T08:01:21.209Z,99.90
2023-01-09T08:03:48.110Z,99.90
2023-01-09T08:06:15.009Z,99.90
2023-01-09T08:08:43.123Z,99.90
2023-01-09T08:11:10.377Z,99.90
2023-01-09T08:13:37.288Z,99.90
2023-01-09T08:16:04.473Z,99.90
2023-01-09T08:18:31.373Z,99.90
2023-01-09T08:20:58.244Z,99.90
2023-01-09T08:23:25.208Z,99.90
2023-01-09T08:25:53.061Z,99.90
2023-01-09T08:28:19.998Z,99.90
2023-01-09T08:30:47.714Z,99.90
2023-01-09T08:33:15.090Z,99.90
2023-01-09T08:35:44.273Z,99.90
2023-01-09T08:38:11.358Z,99.90
2023-01-09T08:40:38.216Z,99.90
2023-01-09T08:43:24.306Z,99.90
2023-01-09T08:46:09.991Z,99.90
2023-01-09T08:48:37.146Z,99.90
2023-01-09T08:51:04.019Z,99.90
2023-01-09T08:53:31.494Z,99.90
2023-01-09T08:55:59.146Z,99.90
2023-01-09T08:58:26.055Z,99.90
2023-01-09T09:00:52.910Z,99.90
2023-01-09T09:03:19.926Z,99.90
2023-01-09T09:05:46.980Z,99.90
2023-01-09T09:08:14.281Z,99.90
2023-01-09T09:10:41.043Z,99.90
2023-01-09T09:13:07.955Z,99.90
2023-01-09T09:15:34.959Z,99.90
2023-01-09T09:18:07.199Z,99.90
2023-01-09T09:20:38.819Z,99.90
2023-01-09T09:23:08.398Z,99.90
2023-01-09T09:25:38.176Z,99.90
2023-01-09T09:28:05.238Z,99.90
2023-01-09T09:30:32.172Z,99.90
2023-01-09T09:32:59.074Z,99.90
2023-01-09T09:35:25.929Z,99.90
2023-01-09T09:37:57.927Z,99.90
2023-01-09T09:40:46.840Z,99.90
2023-01-09T09:44:00.037Z,99.90
2023-01-09T09:46:36.878Z,99.90
2023-01-09T09:49:36.144Z,99.90
2023-01-09T09:52:16.131Z,99.90
2023-01-09T09:54:50.021Z,99.90
2023-01-09T09:57:20.678Z,99.90
2023-01-09T09:59:51.292Z,99.90
2023-01-09T10:02:29.080Z,99.90
2023-01-09T10:05:17.154Z,99.90
2023-01-09T10:07:51.071Z,99.90
2023-01-09T10:10:41.017Z,99.90
2023-01-09T10:13:27.880Z,99.90
2023-01-09T10:16:22.305Z,99.90
2023-01-09T10:18:58.726Z,99.90
2023-01-09T10:21:28.566Z,99.90
2023-01-09T10:23:55.329Z,99.90
2023-01-09T10:26:36.330Z,99.90
2023-01-09T10:29:16.120Z,99.90
2023-01-09T10:31:46.107Z,99.90
2023-01-09T10:34:24.754Z,99.90
2023-01-09T10:37:07.113Z,99.90
2023-01-09T10:39:41.067Z,99.90
2023-01-09T10:42:37.120Z,99.90
2023-01-09T10:45:36.598Z,99.90
2023-01-09T10:48:28.249Z,99.90
2023-01-09T10:50:56.733Z,99.90
2023-01-09T10:53:28.787Z,99.90
2023-01-09T10:56:02.031Z,99.90
2023-01-09T10:58:29.540Z,99.90
2023-01-09T11:00:58.873Z,99.90
2023-01-09T11:03:28.116Z,99.90
2023-01-09T11:05:58.504Z,99.90
2023-01-09T11:08:42.432Z,99.90
2023-01-09T11:11:10.781Z,99.90
2023-01-09T11:13:41.005Z,99.90
2023-01-09T11:16:11.097Z,99.90
2023-01-09T11:18:53.535Z,99.90
2023-01-09T11:21:41.923Z,99.90
2023-01-09T11:24:21.398Z,99.90
2023-01-09T11:26:50.988Z,99.90
2023-01-09T11:29:20.212Z,99.90
2023-01-09T11:31:59.451Z,99.90
2023-01-09T11:34:30.452Z,99.90
2023-01-09T11:37:14.110Z,99.90
2023-01-09T11:39:47.893Z,99.90
2023-01-09T11:42:50.174Z,99.90
2023-01-09T11:45:23.649Z,99.90
2023-01-09T11:47:50.594Z,99.90
2023-01-09T11:50:18.993Z,99.90
2023-01-09T11:52:46.554Z,99.90
2023-01-09T11:55:19.345Z,99.90
2023-01-09T11:57:46.363Z,99.90
2023-01-09T12:00:29.759Z,99.90
2023-01-09T12:03:24.440Z,99.90
2023-01-09T12:06:27.808Z,99.90
2023-01-09T12:09:05.039Z,99.90
2023-01-09T12:11:47.774Z,99.90
2023-01-09T12:14:23.825Z,99.90
2023-01-09T12:16:59.787Z,99.90
2023-01-09T12:19:51.868Z,99.90
2023-01-09T12:22:28.178Z,99.90
2023-01-09T12:24:55.025Z,99.90
2023-01-09T12:27:36.518Z,99.90
2023-01-09T12:30:21.114Z,99.90
2023-01-09T12:33:16.811Z,99.90
2023-01-09T12:35:51.665Z,99.90
2023-01-09T12:38:49.133Z,99.90
2023-01-09T12:41:31.978Z,99.90
2023-01-09T12:44:35.858Z,99.90
2023-01-09T12:47:28.281Z,99.90
2023-01-09T12:50:07.306Z,99.90
2023-01-09T12:52:42.148Z,99.90
2023-01-09T12:55:21.066Z,99.90
2023-01-09T12:58:02.495Z,99.90
2023-01-09T13:00:35.657Z,99.90
2023-01-09T13:03:18.512Z,99.90
2023-01-09T13:05:53.721Z,99.90
2023-01-09T13:08:36.167Z,99.90
2023-01-09T13:11:27.311Z,99.90
2023-01-09T13:14:20.945Z,99.90
2023-01-09T13:16:52.233Z,99.90
2023-01-09T13:19:39.544Z,99.90
2023-01-09T13:22:07.621Z,99.90
2023-01-09T13:24:56.598Z,99.90
2023-01-09T13:27:29.969Z,99.90
2023-01-09T13:30:11.201Z,99.90
2023-01-09T13:33:11.877Z,99.90
2023-01-09T13:35:53.268Z,99.90
2023-01-09T13:38:23.784Z,99.90
2023-01-09T13:41:32.093Z,99.90
2023-01-09T13:44:19.830Z,99.90
2023-01-09T13:46:50.682Z,99.90
2023-01-09T13:49:53.023Z,99.90
2023-01-09T13:52:31.267Z,99.90
2023-01-09T13:54:58.296Z,99.90
2023-01-09T13:57:34.865Z,99.90
2023-01-09T14:00:14.659Z,99.90
2023-01-09T14:02:42.454Z,99.90
2023-01-09T14:05:14.932Z,99.90
2023-01-09T14:07:42.634Z,99.90
2023-01-09T14:10:30.209Z,99.90
2023-01-09T14:12:58.175Z,99.90
2023-01-09T14:15:32.969Z,99.90
2023-01-09T14:18:05.186Z,99.80
2023-01-09T14:20:38.256Z,98.80
2023-01-09T14:23:31.402Z,99.10
2023-01-09T14:25:55.350Z,99.40
2023-01-09T14:28:27.428Z,99.90
2023-01-09T14:30:54.356Z,99.90
2023-01-09T14:33:25.223Z,99.90
2023-01-09T14:36:21.726Z,99.90
2023-01-09T14:39:00.390Z,99.90
2023-01-09T14:41:52.346Z,99.90
2023-01-09T14:44:27.162Z,99.90
2023-01-09T14:46:56.256Z,99.90
2023-01-09T14:49:38.814Z,99.90
2023-01-09T14:52:21.361Z,99.90
2023-01-09T14:54:49.594Z,99.90
2023-01-09T14:57:34.231Z,99.90
2023-01-09T15:00:07.055Z,99.90
2023-01-09T15:02:36.958Z,99.90
2023-01-09T15:05:09.396Z,99.90
2023-01-09T15:07:44.345Z,99.90
2023-01-09T15:10:21.679Z,99.90
2023-01-09T15:12:51.992Z,99.90
2023-01-09T15:15:23.965Z,99.90
2023-01-09T15:18:00.113Z,99.90
2023-01-09T15:20:30.123Z,99.90
2023-01-09T15:23:00.759Z,99.90
2023-01-09T15:25:39.595Z,99.90
2023-01-09T15:28:35.147Z,99.90
2023-01-09T15:31:11.838Z,99.60
2023-01-09T15:33:40.630Z,99.10
2023-01-09T15:36:15.328Z,97.90
2023-01-09T15:38:45.783Z,97.90
2023-01-09T15:41:44.688Z,97.80
2023-01-09T15:44:26.261Z,97.60
2023-01-09T15:46:58.536Z,97.80
2023-01-09T15:49:25.997Z,97.70
2023-01-09T15:51:53.715Z,98.20
2023-01-09T15:54:33.167Z,97.90
2023-01-09T15:57:27.534Z,97.90
2023-01-09T15:59:55.588Z,97.40
2023-01-09T16:02:43.092Z,97.00
2023-01-09T16:05:20.022Z,96.90
2023-01-09T16:07:49.013Z,96.20
2023-01-09T16:10:25.433Z,96.40
2023-01-09T16:12:54.612Z,96.60
2023-01-09T16:15:22.114Z,96.50
2023-01-09T16:18:28.746Z,96.70
2023-01-09T16:21:12.546Z,97.20
2023-01-09T16:23:51.908Z,97.10
2023-01-09T16:26:21.586Z,97.10
2023-01-09T16:28:48.466Z,96.80
2023-01-09T16:31:33.733Z,96.80
2023-01-09T16:34:06.508Z,97.30
2023-01-09T16:36:37.411Z,97.30
2023-01-09T16:39:04.979Z,97.20
2023-01-09T16:41:50.758Z,97.20
2023-01-09T16:44:19.271Z,97.40
2023-01-09T16:46:46.297Z,97.80
2023-01-09T16:49:23.494Z,98.10
2023-01-09T16:51:51.593Z,98.20
2023-01-09T16:54:18.972Z,98.30
2023-01-09T16:56:49.565Z,98.20
2023-01-09T16:59:21.135Z,98.10
2023-01-09T17:01:48.743Z,98.10
2023-01-09T17:04:17.358Z,98.20
2023-01-09T17:06:44.727Z,98.30
2023-01-09T17:09:13.330Z,98.40
2023-01-09T17:11:40.410Z,98.40
2023-01-09T17:14:09.436Z,98.10
2023-01-09T17:16:36.951Z,98.20
2023-01-09T17:19:04.498Z,98.20
2023-01-09T17:21:32.319Z,98.00
2023-01-09T17:24:28.894Z,98.10
2023-01-09T17:27:14.569Z,98.00
2023-01-09T17:29:41.788Z,98.20
2023-01-09T17:32:16.411Z,98.30
2023-01-09T17:34:43.793Z,98.30
2023-01-09T17:37:19.072Z,98.20
2023-01-09T17:39:46.602Z,98.10
2023-01-09T17:42:13.502Z,97.90
2023-01-09T17:44:40.665Z,97.80
2023-01-09T17:47:15.463Z,97.60
2023-01-09T17:49:42.942Z,97.60
2023-01-09T17:52:09.861Z,97.50
2023-01-09T17:54:36.929Z,97.60
2023-01-09T17:57:04.323Z,97.60
2023-01-09T17:59:31.504Z,97.50
2023-01-09T18:01:58.626Z,97.40
2023-01-09T18:04:25.580Z,97.40
2023-01-09T18:06:54.443Z,97.40
2023-01-09T18:09:21.378Z,97.40
2023-01-09T18:11:48.306Z,97.30
2023-01-09T18:14:16.845Z,97.50
2023-01-09T18:16:45.273Z,97.50
2023-01-09T18:19:12.275Z,97.30
2023-01-09T18:21:39.070Z,97.20
2023-01-09T18:24:06.313Z,97.30
2023-01-09T18:26:33.425Z,97.40
2023-01-09T18:29:00.877Z,97.50
2023-01-09T18:31:29.824Z,97.40
2023-01-09T18:33:58.558Z,97.20
2023-01-09T18:36:30.897Z,97.20
2023-01-09T18:39:00.487Z,96.80
2023-01-09T18:41:28.248Z,96.80
2023-01-09T18:43:57.707Z,96.80
2023-01-09T18:46:25.241Z,96.70
2023-01-09T18:48:53.624Z,96.80
2023-01-09T18:51:21.305Z,96.60
2023-01-09T18:53:49.333Z,96.30
2023-01-09T18:56:16.693Z,95.90
2023-01-09T18:58:43.530Z,95.80
2023-01-09T19:01:10.541Z,95.50
2023-01-09T19:03:37.615Z,95.60
2023-01-09T19:06:05.054Z,95.60
2023-01-09T19:08:35.047Z,96.10
2023-01-09T19:11:02.414Z,96.20
2023-01-09T19:13:31.480Z,96.10
2023-01-09T19:15:59.113Z,96.20
2023-01-09T19:18:27.681Z,96.20
2023-01-09T19:20:55.371Z,96.00
2023-01-09T19:23:24.611Z,96.20
2023-01-09T19:25:53.166Z,96.00
2023-01-09T19:28:20.985Z,96.10
2023-01-09T19:30:53.912Z,95.90
2023-01-09T19:33:20.831Z,95.90
2023-01-09T19:35:51.796Z,96.20
2023-01-09T19:38:19.832Z,95.90
2023-01-09T19:40:46.690Z,95.70
2023-01-09T19:43:25.585Z,95.50
2023-01-09T19:45:56.379Z,95.60
2023-01-09T19:48:26.983Z,95.70
2023-01-09T19:51:04.903Z,95.60
2023-01-09T19:53:32.900Z,95.80
2023-01-09T19:56:14.653Z,96.20
2023-01-09T19:58:43.372Z,96.00
2023-01-09T20:01:13.323Z,95.70
2023-01-09T20:03:41.984Z,95.70
2023-01-09T20:06:14.476Z,95.50
2023-01-09T20:08:42.651Z,95.30
2023-01-09T20:11:09.519Z,95.20
2023-01-09T20:13:36.741Z,95.40
2023-01-09T20:16:04.364Z,95.80
2023-01-09T20:18:33.850Z,95.80
2023-01-09T20:21:01.810Z,95.40
2023-01-09T20:23:28.893Z,95.40
2023-01-09T20:25:57.372Z,95.60
2023-01-09T20:28:26.197Z,95.70
2023-01-09T20:30:54.129Z,95.50
2023-01-09T20:33:21.466Z,95.60
2023-01-09T20:35:48.631Z,95.50
2023-01-09T20:38:15.554Z,95.40
2023-01-09T20:40:43.938Z,95.40
2023-01-09T20:43:12.687Z,95.20
2023-01-09T20:45:40.676Z,95.00
2023-01-09T20:48:09.108Z,95.10
2023-01-09T20:50:35.960Z,95.00
2023-01-09T20:53:05.430Z,95.10
2023-01-09T20:55:33.420Z,95.20
2023-01-09T20:58:00.246Z,95.10
2023-01-09T21:00:31.634Z,95.00
2023-01-09T21:02:59.451Z,95.20
2023-01-09T21:05:26.673Z,95.10
2023-01-09T21:07:53.704Z,95.00
2023-01-09T21:10:20.706Z,94.80
2023-01-09T21:12:48.247Z,94.90
2023-01-09T21:15:17.861Z,94.80
2023-01-09T21:17:44.702Z,94.70
2023-01-09T21:20:14.816Z,94.70
2023-01-09T21:22:42.221Z,94.30
2023-01-09T21:25:09.594Z,94.60
2023-01-09T21:27:45.673Z,94.80
2023-01-09T21:30:12.798Z,94.70
2023-01-09T21:32:39.694Z,94.80
2023-01-09T21:35:07.115Z,94.40
2023-01-09T21:37:35.754Z,94.40
2023-01-09T21:40:03.501Z,94.50
2023-01-09T21:42:49.118Z,94.40
2023-01-09T21:45:36.780Z,94.20
2023-01-09T21:48:07.240Z,94.10
2023-01-09T21:50:35.266Z,94.30
2023-01-09T21:53:02.501Z,94.30
2023-01-09T21:55:32.048Z,94.60
2023-01-09T21:58:01.162Z,94.70
2023-01-09T22:00:29.290Z,94.10
2023-01-09T22:02:56.456Z,94.20
2023-01-09T22:05:24.699Z,94.80
2023-01-09T22:07:51.915Z,94.80
2023-01-09T22:10:19.016Z,94.40
2023-01-09T22:13:09.027Z,94.20
2023-01-09T22:15:35.849Z,94.40
2023-01-09T22:18:02.644Z,94.50
2023-01-09T22:20:29.577Z,94.40
2023-01-09T22:22:56.477Z,94.30
2023-01-09T22:25:23.327Z,94.50
2023-01-09T22:27:50.148Z,94.60
2023-01-09T22:30:17.564Z,94.60
2023-01-09T22:32:44.583Z,94.60
2023-01-09T22:35:11.487Z,94.20
2023-01-09T22:37:38.444Z,94.10
2023-01-09T22:40:05.837Z,94.30
2023-01-09T22:42:32.611Z,94.40
2023-01-09T22:44:59.469Z,94.60
2023-01-09T22:47:26.380Z,94.60
2023-01-09T22:49:53.868Z,94.30
2023-01-09T22:52:22.046Z,94.50
2023-01-09T22:54:49.011Z,94.50
2023-01-09T22:57:15.893Z,94.60
2023-01-09T22:59:42.829Z,94.80
2023-01-09T23:02:09.761Z,95.10
2023-01-09T23:04:36.656Z,94.90
2023-01-09T23:07:03.577Z,94.80
2023-01-09T23:09:30.437Z,94.50
2023-01-09T23:12:03.373Z,94.70
2023-01-09T23:14:38.173Z,94.80
2023-01-09T23:17:06.701Z,94.60
2023-01-09T23:19:33.760Z,94.70
2023-01-09T23:22:02.321Z,94.90
2023-01-09T23:24:29.740Z,95.00
2023-01-09T23:26:57.329Z,94.90
2023-01-09T23:29:25.503Z,94.70
2023-01-09T23:31:53.679Z,94.80
2023-01-09T23:34:24.131Z,94.80
2023-01-09T23:36:51.934Z,94.70
2023-01-09T23:39:18.825Z,94.60
2023-01-09T23:42:04.826Z,94.60
2023-01-09T23:44:31.782Z,94.70
2023-01-09T23:46:58.789Z,94.60
2023-01-09T23:49:25.792Z,94.50
2023-01-09T23:51:52.693Z,94.70
2023-01-09T23:54:19.675Z,94.80
2023-01-09T23:56:46.515Z,94.60
2023-01-09T23:59:14.678Z,94.70
